KIAD/IAD METAR and TAF weather

Enter ICAO airport designator
Station Type Date Time Source
KIAD METAR 2022/12/08 11:52 UTC NOAA

KIAD 081152Z 34005KT 10SM SCT040 BKN250 10/06 A3027 RMK AO2 SLP250 70003 T01000061 10100 20050 53014 $


Station Type Date Time Source
KIAD Decoded METAR 2022/12/08 11:52 UTC NOAA

DULLES INTERNATIONAL AIRPORT, VA, United States (KIAD) 38-56N 077-27W 93M
Dec 08, 2022 - 06:52 AM EST / 2022.12.08 1152 UTC
Wind: from the NNW (340 degrees) at 6 MPH (5 KT):0
Visibility: 10 mile(s):0
Sky conditions: mostly cloudy
Temperature: 50.0 F (10.0 C)
Dew Point: 43.0 F (6.1 C)
Relative Humidity: 76%
Pressure (altimeter): 30.27 in. Hg (1025 hPa)
Pressure tendency: 0.04 inches (1.4 hPa) higher than three hours ago
ob: KIAD 081152Z 34005KT 10SM SCT040 BKN250 10/06 A3027 RMK AO2 SLP250 70003 T01000061 10100 20050 53014
cycle: 12

Station Type Date Time Source
KIAD TAF 2022/12/08 12:42 UTC NOAA

TAF KIAD 081141Z 0812/0918 36006KT P6SM SCT035 OVC250
FM081400 36006KT P6SM BKN050 OVC250
FM082100 35008KT P6SM BKN100
FM090600 35004KT P6SM OVC100
FM091200 01006KT P6SM SCT050 BKN250

Example: see airport list